sensor_id;sensor_type;location;lat;lon;timestamp;pressure;altitude;pressure_sealevel;temperature;humidity
71107;BME280;58763;47.982;11.516;2023-02-19T00:03:55;94608.34;;;9.18;66.86
71107;BME280;58763;47.982;11.516;2023-02-19T00:06:22;94617.78;;;9.20;67.13
71107;BME280;58763;47.982;11.516;2023-02-19T00:08:48;94608.31;;;9.13;67.23
71107;BME280;58763;47.982;11.516;2023-02-19T00:11:17;94608.31;;;9.13;67.26
71107;BME280;58763;47.982;11.516;2023-02-19T00:13:45;94612.63;;;9.09;67.75
71107;BME280;58763;47.982;11.516;2023-02-19T00:18:48;94594.00;;;8.97;68.56
71107;BME280;58763;47.982;11.516;2023-02-19T00:21:14;94602.94;;;9.02;68.26
71107;BME280;58763;47.982;11.516;2023-02-19T00:23:40;94597.00;;;9.00;67.95
71107;BME280;58763;47.982;11.516;2023-02-19T00:26:10;94599.13;;;8.98;68.26
71107;BME280;58763;47.982;11.516;2023-02-19T00:28:37;94591.31;;;8.97;68.17
71107;BME280;58763;47.982;11.516;2023-02-19T00:33:44;94589.41;;;8.92;68.49
71107;BME280;58763;47.982;11.516;2023-02-19T00:36:10;94590.25;;;8.98;68.17
71107;BME280;58763;47.982;11.516;2023-02-19T00:38:36;94586.69;;;8.92;68.51
71107;BME280;58763;47.982;11.516;2023-02-19T00:41:03;94581.59;;;8.96;68.07
71107;BME280;58763;47.982;11.516;2023-02-19T00:43:55;94590.47;;;8.96;67.93
71107;BME280;58763;47.982;11.516;2023-02-19T00:46:27;94591.56;;;8.95;68.21
71107;BME280;58763;47.982;11.516;2023-02-19T00:48:52;94581.34;;;8.97;67.95
71107;BME280;58763;47.982;11.516;2023-02-19T00:51:20;94587.00;;;8.96;68.20
71107;BME280;58763;47.982;11.516;2023-02-19T00:53:46;94587.53;;;8.93;68.51
71107;BME280;58763;47.982;11.516;2023-02-19T00:56:12;94579.97;;;8.95;68.43
71107;BME280;58763;47.982;11.516;2023-02-19T00:58:38;94584.53;;;8.94;68.38
71107;BME280;58763;47.982;11.516;2023-02-19T01:01:05;94577.25;;;8.90;68.35
71107;BME280;58763;47.982;11.516;2023-02-19T01:03:34;94576.72;;;8.88;68.05
71107;BME280;58763;47.982;11.516;2023-02-19T01:06:00;94571.59;;;8.86;68.22
71107;BME280;58763;47.982;11.516;2023-02-19T01:08:26;94580.22;;;8.83;68.54
71107;BME280;58763;47.982;11.516;2023-02-19T01:10:52;94570.25;;;8.84;68.63
71107;BME280;58763;47.982;11.516;2023-02-19T01:13:18;94558.13;;;8.86;68.47
71107;BME280;58763;47.982;11.516;2023-02-19T01:15:45;94559.19;;;8.85;68.55
71107;BME280;58763;47.982;11.516;2023-02-19T01:18:11;94562.97;;;8.84;69.15
71107;BME280;58763;47.982;11.516;2023-02-19T01:20:41;94547.56;;;8.85;69.20
71107;BME280;58763;47.982;11.516;2023-02-19T01:23:07;94558.38;;;8.90;68.58
71107;BME280;58763;47.982;11.516;2023-02-19T01:25:33;94547.03;;;8.83;69.08
71107;BME280;58763;47.982;11.516;2023-02-19T01:27:58;94546.22;;;8.82;69.44
71107;BME280;58763;47.982;11.516;2023-02-19T01:30:24;94552.69;;;8.81;69.64
71107;BME280;58763;47.982;11.516;2023-02-19T01:32:49;94545.94;;;8.79;69.67
71107;BME280;58763;47.982;11.516;2023-02-19T01:35:15;94539.75;;;8.83;69.28
71107;BME280;58763;47.982;11.516;2023-02-19T01:37:40;94540.31;;;8.85;69.07
71107;BME280;58763;47.982;11.516;2023-02-19T01:40:07;94535.19;;;8.89;69.39
71107;BME280;58763;47.982;11.516;2023-02-19T01:42:32;94536.25;;;8.88;69.15
71107;BME280;58763;47.982;11.516;2023-02-19T01:45:24;94537.34;;;8.82;69.27
71107;BME280;58763;47.982;11.516;2023-02-19T01:50:27;94534.06;;;8.80;69.45
71107;BME280;58763;47.982;11.516;2023-02-19T01:52:54;94524.09;;;8.80;69.38
71107;BME280;58763;47.982;11.516;2023-02-19T01:55:21;94533.81;;;8.81;69.42
71107;BME280;58763;47.982;11.516;2023-02-19T01:57:50;94534.66;;;8.82;69.32
71107;BME280;58763;47.982;11.516;2023-02-19T02:00:18;94534.38;;;8.83;69.01
71107;BME280;58763;47.982;11.516;2023-02-19T02:02:47;94530.03;;;8.82;69.22
71107;BME280;58763;47.982;11.516;2023-02-19T02:07:54;94540.28;;;8.80;68.98
71107;BME280;58763;47.982;11.516;2023-02-19T02:10:38;94521.69;;;8.84;69.28
71107;BME280;58763;47.982;11.516;2023-02-19T02:13:04;94525.19;;;8.79;69.61
71107;BME280;58763;47.982;11.516;2023-02-19T02:15:39;94524.38;;;8.79;69.25
71107;BME280;58763;47.982;11.516;2023-02-19T02:18:21;94516.28;;;8.79;69.52
71107;BME280;58763;47.982;11.516;2023-02-19T02:21:35;94529.22;;;8.77;69.59
71107;BME280;58763;47.982;11.516;2023-02-19T02:25:08;94527.59;;;8.76;69.76
71107;BME280;58763;47.982;11.516;2023-02-19T02:27:21;94527.06;;;8.74;69.97
71107;BME280;58763;47.982;11.516;2023-02-19T02:32:55;94510.34;;;8.72;70.01
71107;BME280;58763;47.982;11.516;2023-02-19T02:35:26;94515.44;;;8.68;70.12
71107;BME280;58763;47.982;11.516;2023-02-19T02:37:54;94510.88;;;8.69;70.29
71107;BME280;58763;47.982;11.516;2023-02-19T02:40:21;94510.84;;;8.64;70.46
71107;BME280;58763;47.982;11.516;2023-02-19T02:42:47;94506.28;;;8.64;70.78
71107;BME280;58763;47.982;11.516;2023-02-19T02:48:01;94493.31;;;8.61;71.04
71107;BME280;58763;47.982;11.516;2023-02-19T02:50:38;94482.81;;;8.60;71.74
71107;BME280;58763;47.982;11.516;2023-02-19T02:53:18;94483.63;;;8.60;71.30
71107;BME280;58763;47.982;11.516;2023-02-19T02:56:04;94473.66;;;8.56;72.05
71107;BME280;58763;47.982;11.516;2023-02-19T02:58:30;94464.19;;;8.53;72.15
71107;BME280;58763;47.982;11.516;2023-02-19T03:01:01;94467.97;;;8.52;71.90
71107;BME280;58763;47.982;11.516;2023-02-19T03:03:49;94455.28;;;8.48;72.53
71107;BME280;58763;47.982;11.516;2023-02-19T03:06:19;94459.59;;;8.49;72.44
71107;BME280;58763;47.982;11.516;2023-02-19T03:08:47;94459.59;;;8.44;72.73
71107;BME280;58763;47.982;11.516;2023-02-19T03:11:16;94447.19;;;8.38;73.25
71107;BME280;58763;47.982;11.516;2023-02-19T03:14:05;94445.84;;;8.35;74.83
71107;BME280;58763;47.982;11.516;2023-02-19T03:17:34;94458.19;;;8.26;74.98
71107;BME280;58763;47.982;11.516;2023-02-19T03:20:22;94458.19;;;8.26;76.57
71107;BME280;58763;47.982;11.516;2023-02-19T03:22:50;94465.66;;;8.14;77.48
71107;BME280;58763;47.982;11.516;2023-02-19T03:25:23;94459.94;;;8.00;78.42
71107;BME280;58763;47.982;11.516;2023-02-19T03:28:09;94460.38;;;7.82;81.51
71107;BME280;58763;47.982;11.516;2023-02-19T03:30:41;94469.22;;;7.73;82.81
71107;BME280;58763;47.982;11.516;2023-02-19T03:33:14;94468.63;;;7.65;82.99
71107;BME280;58763;47.982;11.516;2023-02-19T03:35:45;94470.19;;;7.56;83.31
71107;BME280;58763;47.982;11.516;2023-02-19T03:38:25;94468.50;;;7.45;85.82
71107;BME280;58763;47.982;11.516;2023-02-19T03:40:58;94489.44;;;7.38;86.20
71107;BME280;58763;47.982;11.516;2023-02-19T03:43:49;94475.69;;;7.30;87.47
71107;BME280;58763;47.982;11.516;2023-02-19T03:46:25;94486.66;;;7.23;86.89
71107;BME280;58763;47.982;11.516;2023-02-19T03:48:55;94503.28;;;7.20;87.47
71107;BME280;58763;47.982;11.516;2023-02-19T03:51:29;94501.06;;;7.12;87.95
71107;BME280;58763;47.982;11.516;2023-02-19T03:56:48;94498.31;;;7.07;89.40
71107;BME280;58763;47.982;11.516;2023-02-19T03:59:21;94499.16;;;7.08;89.14
71107;BME280;58763;47.982;11.516;2023-02-19T04:01:59;94500.72;;;7.04;88.94
71107;BME280;58763;47.982;11.516;2023-02-19T04:04:34;94492.38;;;7.00;89.60
71107;BME280;58763;47.982;11.516;2023-02-19T04:07:01;94488.00;;;6.94;89.55
71107;BME280;58763;47.982;11.516;2023-02-19T04:09:40;94497.16;;;6.93;89.42
71107;BME280;58763;47.982;11.516;2023-02-19T04:12:08;94495.81;;;6.95;90.07
71107;BME280;58763;47.982;11.516;2023-02-19T04:14:42;94493.88;;;6.91;88.98
71107;BME280;58763;47.982;11.516;2023-02-19T04:17:17;94488.50;;;6.86;89.80
71107;BME280;58763;47.982;11.516;2023-02-19T04:19:45;94497.06;;;6.83;89.94
71107;BME280;58763;47.982;11.516;2023-02-19T04:22:14;94502.16;;;6.84;89.39
71107;BME280;58763;47.982;11.516;2023-02-19T04:24:47;94491.91;;;6.81;90.01
71107;BME280;58763;47.982;11.516;2023-02-19T04:27:15;94485.97;;;6.79;89.27
71107;BME280;58763;47.982;11.516;2023-02-19T04:29:41;94478.75;;;6.80;89.12
71107;BME280;58763;47.982;11.516;2023-02-19T04:32:09;94466.94;;;6.81;88.96
71107;BME280;58763;47.982;11.516;2023-02-19T04:34:35;94462.88;;;6.78;88.47
71107;BME280;58763;47.982;11.516;2023-02-19T04:37:01;94450.00;;;6.80;89.10
71107;BME280;58763;47.982;11.516;2023-02-19T04:39:27;94425.53;;;6.82;88.20
71107;BME280;58763;47.982;11.516;2023-02-19T04:41:52;94437.81;;;6.73;89.34
71107;BME280;58763;47.982;11.516;2023-02-19T04:44:18;94451.25;;;6.73;89.54
71107;BME280;58763;47.982;11.516;2023-02-19T04:46:44;94453.94;;;6.73;88.28
71107;BME280;58763;47.982;11.516;2023-02-19T04:49:09;94464.69;;;6.73;87.96
71107;BME280;58763;47.982;11.516;2023-02-19T04:51:35;94464.69;;;6.73;88.40
71107;BME280;58763;47.982;11.516;2023-02-19T04:54:00;94464.69;;;6.73;88.10
71107;BME280;58763;47.982;11.516;2023-02-19T04:56:26;94490.81;;;6.77;86.96
71107;BME280;58763;47.982;11.516;2023-02-19T04:58:51;94475.22;;;6.79;87.44
71107;BME280;58763;47.982;11.516;2023-02-19T05:01:17;94481.69;;;6.78;87.34
71107;BME280;58763;47.982;11.516;2023-02-19T05:03:43;94484.94;;;6.80;87.24
71107;BME280;58763;47.982;11.516;2023-02-19T05:06:11;94485.19;;;6.79;85.32
71107;BME280;58763;47.982;11.516;2023-02-19T05:08:38;94489.75;;;6.78;85.88
71107;BME280;58763;47.982;11.516;2023-02-19T05:11:06;94484.44;;;6.83;84.24
71107;BME280;58763;47.982;11.516;2023-02-19T05:13:32;94490.03;;;6.82;84.67
71107;BME280;58763;47.982;11.516;2023-02-19T05:16:04;94492.50;;;6.83;84.06
71107;BME280;58763;47.982;11.516;2023-02-19T05:18:30;94498.66;;;6.84;83.87
71107;BME280;58763;47.982;11.516;2023-02-19T05:20:57;94485.22;;;6.84;83.04
71107;BME280;58763;47.982;11.516;2023-02-19T05:23:24;94497.06;;;6.83;83.40
71107;BME280;58763;47.982;11.516;2023-02-19T05:25:50;94479.66;;;6.90;81.48
71107;BME280;58763;47.982;11.516;2023-02-19T05:28:16;94491.72;;;6.88;82.05
71107;BME280;58763;47.982;11.516;2023-02-19T05:30:49;94492.78;;;6.87;82.20
71107;BME280;58763;47.982;11.516;2023-02-19T05:33:17;94478.34;;;6.93;81.87
71107;BME280;58763;47.982;11.516;2023-02-19T05:35:53;94480.25;;;6.97;81.64
71107;BME280;58763;47.982;11.516;2023-02-19T05:38:20;94485.63;;;6.97;80.90
71107;BME280;58763;47.982;11.516;2023-02-19T05:40:46;94484.00;;;6.96;81.18
71107;BME280;58763;47.982;11.516;2023-02-19T05:43:13;94481.03;;;6.93;81.10
71107;BME280;58763;47.982;11.516;2023-02-19T05:45:40;94498.81;;;6.99;80.51
71107;BME280;58763;47.982;11.516;2023-02-19T05:48:06;94497.50;;;7.02;80.03
71107;BME280;58763;47.982;11.516;2023-02-19T05:50:33;94495.84;;;7.01;79.98
71107;BME280;58763;47.982;11.516;2023-02-19T05:53:01;94496.41;;;7.03;79.93
71107;BME280;58763;47.982;11.516;2023-02-19T05:55:28;94491.63;;;7.05;79.89
71107;BME280;58763;47.982;11.516;2023-02-19T05:57:54;94506.59;;;7.01;80.26
71107;BME280;58763;47.982;11.516;2023-02-19T06:00:21;94503.72;;;7.07;78.59
71107;BME280;58763;47.982;11.516;2023-02-19T06:02:46;94505.34;;;7.08;78.68
71107;BME280;58763;47.982;11.516;2023-02-19T06:05:12;94509.66;;;7.09;78.61
71107;BME280;58763;47.982;11.516;2023-02-19T06:07:39;94517.97;;;7.08;78.90
71107;BME280;58763;47.982;11.516;2023-02-19T06:10:09;94517.41;;;7.06;79.16
71107;BME280;58763;47.982;11.516;2023-02-19T06:12:35;94522.78;;;7.06;79.07
71107;BME280;58763;47.982;11.516;2023-02-19T06:15:03;94524.94;;;7.04;80.02
71107;BME280;58763;47.982;11.516;2023-02-19T06:17:29;94520.88;;;7.01;79.66
71107;BME280;58763;47.982;11.516;2023-02-19T06:19:55;94522.50;;;7.02;80.33
71107;BME280;58763;47.982;11.516;2023-02-19T06:22:23;94533.56;;;7.06;79.26
71107;BME280;58763;47.982;11.516;2023-02-19T06:24:49;94537.59;;;7.08;79.57
71107;BME280;58763;47.982;11.516;2023-02-19T06:27:15;94533.88;;;7.09;80.07
71107;BME280;58763;47.982;11.516;2023-02-19T06:29:40;94534.88;;;7.03;80.88
71107;BME280;58763;47.982;11.516;2023-02-19T06:32:06;94542.69;;;7.05;80.52
71107;BME280;58763;47.982;11.516;2023-02-19T06:34:32;94552.91;;;7.08;79.99
71107;BME280;58763;47.982;11.516;2023-02-19T06:36:58;94557.19;;;7.04;80.53
71107;BME280;58763;47.982;11.516;2023-02-19T06:39:24;94565.53;;;7.02;80.62
71107;BME280;58763;47.982;11.516;2023-02-19T06:41:50;94575.19;;;7.03;80.73
71107;BME280;58763;47.982;11.516;2023-02-19T06:44:15;94582.75;;;7.06;80.46
71107;BME280;58763;47.982;11.516;2023-02-19T06:46:41;94572.81;;;7.07;81.09
71107;BME280;58763;47.982;11.516;2023-02-19T06:49:07;94579.56;;;7.09;80.56
71107;BME280;58763;47.982;11.516;2023-02-19T06:51:32;94589.47;;;7.04;81.86
71107;BME280;58763;47.982;11.516;2023-02-19T06:53:59;94587.03;;;7.02;81.56
71107;BME280;58763;47.982;11.516;2023-02-19T06:56:34;94594.22;;;6.96;81.84
71107;BME280;58763;47.982;11.516;2023-02-19T06:59:01;94585.91;;;6.98;82.36
71107;BME280;58763;47.982;11.516;2023-02-19T07:01:29;94592.91;;;6.99;82.30
71107;BME280;58763;47.982;11.516;2023-02-19T07:03:55;94597.72;;;6.97;83.17
71107;BME280;58763;47.982;11.516;2023-02-19T07:06:22;94594.97;;;6.92;83.19
71107;BME280;58763;47.982;11.516;2023-02-19T07:08:48;94607.94;;;6.95;82.36
71107;BME280;58763;47.982;11.516;2023-02-19T07:11:14;94590.50;;;6.97;82.88
71107;BME280;58763;47.982;11.516;2023-02-19T07:13:40;94602.56;;;6.95;82.84
71107;BME280;58763;47.982;11.516;2023-02-19T07:16:07;94599.09;;;7.00;82.02
71107;BME280;58763;47.982;11.516;2023-02-19T07:18:33;94612.53;;;7.00;82.29
71107;BME280;58763;47.982;11.516;2023-02-19T07:21:10;94613.91;;;7.02;81.74
71107;BME280;58763;47.982;11.516;2023-02-19T07:23:36;94599.41;;;7.03;82.44
71107;BME280;58763;47.982;11.516;2023-02-19T07:26:02;94605.31;;;7.05;82.85
71107;BME280;58763;47.982;11.516;2023-02-19T07:28:28;94609.84;;;7.00;83.59
71107;BME280;58763;47.982;11.516;2023-02-19T07:30:59;94605.84;;;7.02;83.24
71107;BME280;58763;47.982;11.516;2023-02-19T07:33:25;94612.03;;;7.03;83.79
71107;BME280;58763;47.982;11.516;2023-02-19T07:35:51;94601.03;;;7.04;83.28
71107;BME280;58763;47.982;11.516;2023-02-19T07:38:18;94609.94;;;7.10;83.24
71107;BME280;58763;47.982;11.516;2023-02-19T07:40:59;94618.00;;;7.10;83.36
71107;BME280;58763;47.982;11.516;2023-02-19T07:43:26;94627.72;;;7.11;83.05
71107;BME280;58763;47.982;11.516;2023-02-19T07:45:53;94623.16;;;7.11;83.16
71107;BME280;58763;47.982;11.516;2023-02-19T07:48:19;94628.28;;;7.13;83.26
71107;BME280;58763;47.982;11.516;2023-02-19T07:50:56;94630.75;;;7.19;82.77
71107;BME280;58763;47.982;11.516;2023-02-19T07:53:22;94622.19;;;7.22;83.12
71107;BME280;58763;47.982;11.516;2023-02-19T07:55:48;94634.59;;;7.23;83.01
71107;BME280;58763;47.982;11.516;2023-02-19T07:58:15;94635.47;;;7.34;83.18
71107;BME280;58763;47.982;11.516;2023-02-19T08:00:40;94651.94;;;7.37;82.65
71107;BME280;58763;47.982;11.516;2023-02-19T08:03:06;94648.94;;;7.34;83.12
71107;BME280;58763;47.982;11.516;2023-02-19T08:05:36;94655.13;;;7.34;82.85
71107;BME280;58763;47.982;11.516;2023-02-19T08:08:05;94653.25;;;7.35;83.59
71107;BME280;58763;47.982;11.516;2023-02-19T08:10:31;94653.81;;;7.37;82.98
71107;BME280;58763;47.982;11.516;2023-02-19T08:13:16;94650.03;;;7.38;82.14
71107;BME280;58763;47.982;11.516;2023-02-19T08:15:45;94656.50;;;7.37;82.26
71107;BME280;58763;47.982;11.516;2023-02-19T08:18:13;94656.25;;;7.38;82.22
71107;BME280;58763;47.982;11.516;2023-02-19T08:20:39;94667.56;;;7.40;82.44
71107;BME280;58763;47.982;11.516;2023-02-19T08:23:05;94669.13;;;7.36;82.23
71107;BME280;58763;47.982;11.516;2023-02-19T08:25:31;94664.88;;;7.40;82.30
71107;BME280;58763;47.982;11.516;2023-02-19T08:27:57;94663.88;;;7.51;81.86
71107;BME280;58763;47.982;11.516;2023-02-19T08:30:25;94666.06;;;7.54;81.91
71107;BME280;58763;47.982;11.516;2023-02-19T08:32:51;94670.63;;;7.54;81.45
71107;BME280;58763;47.982;11.516;2023-02-19T08:35:16;94670.69;;;7.59;81.89
71107;BME280;58763;47.982;11.516;2023-02-19T08:37:42;94680.75;;;7.68;82.11
71107;BME280;58763;47.982;11.516;2023-02-19T08:40:08;94669.75;;;7.70;81.81
71107;BME280;58763;47.982;11.516;2023-02-19T08:42:34;94683.66;;;7.62;81.42
71107;BME280;58763;47.982;11.516;2023-02-19T08:44:59;94681.63;;;7.74;81.24
71107;BME280;58763;47.982;11.516;2023-02-19T08:47:25;94685.78;;;7.60;81.43
71107;BME280;58763;47.982;11.516;2023-02-19T08:49:50;94682.53;;;7.58;82.26
71107;BME280;58763;47.982;11.516;2023-02-19T08:52:16;94691.13;;;7.55;82.66
71107;BME280;58763;47.982;11.516;2023-02-19T08:54:41;94684.16;;;7.59;81.98
71107;BME280;58763;47.982;11.516;2023-02-19T08:57:07;94698.69;;;7.58;81.60
71107;BME280;58763;47.982;11.516;2023-02-19T08:59:32;94694.16;;;7.63;81.82
71107;BME280;58763;47.982;11.516;2023-02-19T09:01:58;94689.25;;;7.55;81.53
71107;BME280;58763;47.982;11.516;2023-02-19T09:04:24;94684.69;;;7.56;82.01
71107;BME280;58763;47.982;11.516;2023-02-19T09:06:51;94689.47;;;7.54;82.08
71107;BME280;58763;47.982;11.516;2023-02-19T09:09:17;94683.75;;;7.72;81.72
71107;BME280;58763;47.982;11.516;2023-02-19T09:11:43;94683.53;;;7.79;81.32
71107;BME280;58763;47.982;11.516;2023-02-19T09:14:09;94690.06;;;7.88;81.82
71107;BME280;58763;47.982;11.516;2023-02-19T09:16:35;94693.59;;;7.88;81.10
71107;BME280;58763;47.982;11.516;2023-02-19T09:19:02;94701.34;;;7.85;80.63
71107;BME280;58763;47.982;11.516;2023-02-19T09:21:28;94695.34;;;7.78;81.48
71107;BME280;58763;47.982;11.516;2023-02-19T09:23:53;94710.91;;;7.71;81.99
71107;BME280;58763;47.982;11.516;2023-02-19T09:26:19;94710.34;;;7.68;82.37
71107;BME280;58763;47.982;11.516;2023-02-19T09:28:45;94727.00;;;7.65;83.16
71107;BME280;58763;47.982;11.516;2023-02-19T09:31:13;94738.50;;;7.56;85.00
71107;BME280;58763;47.982;11.516;2023-02-19T09:33:47;94726.53;;;7.20;83.12
71107;BME280;58763;47.982;11.516;2023-02-19T09:36:14;94737.47;;;6.92;85.75
71107;BME280;58763;47.982;11.516;2023-02-19T09:38:40;94728.84;;;6.90;86.97
71107;BME280;58763;47.982;11.516;2023-02-19T09:41:12;94744.34;;;6.83;87.58
71107;BME280;58763;47.982;11.516;2023-02-19T09:43:38;94745.00;;;6.73;89.30
71107;BME280;58763;47.982;11.516;2023-02-19T09:46:29;94755.50;;;6.75;90.26
71107;BME280;58763;47.982;11.516;2023-02-19T09:49:05;94749.41;;;6.63;90.09
71107;BME280;58763;47.982;11.516;2023-02-19T09:51:35;94754.19;;;6.56;90.54
71107;BME280;58763;47.982;11.516;2023-02-19T09:54:03;94749.50;;;6.51;90.88
71107;BME280;58763;47.982;11.516;2023-02-19T09:56:30;94751.91;;;6.48;90.53
71107;BME280;58763;47.982;11.516;2023-02-19T09:58:57;94753.53;;;6.49;90.08
71107;BME280;58763;47.982;11.516;2023-02-19T10:01:27;94751.63;;;6.49;90.07
71107;BME280;58763;47.982;11.516;2023-02-19T10:03:54;94760.22;;;6.46;89.19
71107;BME280;58763;47.982;11.516;2023-02-19T10:06:22;94755.97;;;6.50;90.52
71107;BME280;58763;47.982;11.516;2023-02-19T10:08:51;94750.03;;;6.48;89.61
71107;BME280;58763;47.982;11.516;2023-02-19T10:11:18;94766.63;;;6.45;90.98
71107;BME280;58763;47.982;11.516;2023-02-19T10:13:49;94759.88;;;6.43;91.26
71107;BME280;58763;47.982;11.516;2023-02-19T10:16:20;94778.75;;;6.48;91.90
71107;BME280;58763;47.982;11.516;2023-02-19T10:18:48;94776.16;;;6.53;90.98
71107;BME280;58763;47.982;11.516;2023-02-19T10:21:19;94777.75;;;6.54;91.55
71107;BME280;58763;47.982;11.516;2023-02-19T10:23:48;94785.34;;;6.57;90.56
71107;BME280;58763;47.982;11.516;2023-02-19T10:26:16;94783.47;;;6.57;89.23
71107;BME280;58763;47.982;11.516;2023-02-19T10:28:41;94782.66;;;6.57;87.96
71107;BME280;58763;47.982;11.516;2023-02-19T10:31:24;94780.53;;;6.59;88.08
71107;BME280;58763;47.982;11.516;2023-02-19T10:33:52;94783.03;;;6.65;86.98
71107;BME280;58763;47.982;11.516;2023-02-19T10:38:51;94782.63;;;6.73;87.74
71107;BME280;58763;47.982;11.516;2023-02-19T10:41:20;94773.91;;;6.83;87.27
71107;BME280;58763;47.982;11.516;2023-02-19T10:46:40;94776.66;;;6.88;85.90
71107;BME280;58763;47.982;11.516;2023-02-19T10:51:43;94779.94;;;7.12;85.45
71107;BME280;58763;47.982;11.516;2023-02-19T10:54:24;94777.25;;;7.12;83.28
71107;BME280;58763;47.982;11.516;2023-02-19T10:56:50;94775.44;;;7.17;84.54
71107;BME280;58763;47.982;11.516;2023-02-19T11:02:03;94786.94;;;7.13;83.17
71107;BME280;58763;47.982;11.516;2023-02-19T11:04:39;94775.63;;;7.11;82.57
71107;BME280;58763;47.982;11.516;2023-02-19T11:07:16;94782.63;;;7.12;82.60
71107;BME280;58763;47.982;11.516;2023-02-19T11:09:44;94772.50;;;6.97;81.69
71107;BME280;58763;47.982;11.516;2023-02-19T11:12:12;94773.31;;;6.97;82.43
71107;BME280;58763;47.982;11.516;2023-02-19T11:14:42;94765.53;;;7.01;83.00
71107;BME280;58763;47.982;11.516;2023-02-19T11:17:21;94765.81;;;7.00;83.24
71107;BME280;58763;47.982;11.516;2023-02-19T11:19:51;94765.47;;;6.96;84.24
71107;BME280;58763;47.982;11.516;2023-02-19T11:24:51;94767.59;;;6.94;84.90
71107;BME280;58763;47.982;11.516;2023-02-19T11:27:22;94761.09;;;6.90;84.85
71107;BME280;58763;47.982;11.516;2023-02-19T11:29:48;94773.47;;;6.91;84.45
71107;BME280;58763;47.982;11.516;2023-02-19T11:34:46;94766.53;;;6.95;84.51
71107;BME280;58763;47.982;11.516;2023-02-19T11:37:17;94758.22;;;6.96;84.26
71107;BME280;58763;47.982;11.516;2023-02-19T11:39:46;94761.72;;;6.97;82.86
71107;BME280;58763;47.982;11.516;2023-02-19T11:58:46;94755.88;;;7.00;82.91
71107;BME280;58763;47.982;11.516;2023-02-19T12:01:22;94749.25;;;6.91;84.16
71107;BME280;58763;47.982;11.516;2023-02-19T12:09:27;94753.16;;;7.22;82.62
71107;BME280;58763;47.982;11.516;2023-02-19T12:12:29;94751.72;;;7.36;82.33
71107;BME280;58763;47.982;11.516;2023-02-19T12:15:09;94745.47;;;7.30;81.79
71107;BME280;58763;47.982;11.516;2023-02-19T12:26:28;94755.50;;;7.61;82.21
71107;BME280;58763;47.982;11.516;2023-02-19T12:29:12;94768.09;;;7.56;80.28
71107;BME280;58763;47.982;11.516;2023-02-19T12:32:06;94763.28;;;7.58;78.63
71107;BME280;58763;47.982;11.516;2023-02-19T12:43:15;94765.56;;;7.44;79.44
71107;BME280;58763;47.982;11.516;2023-02-19T12:45:47;94769.28;;;7.43;80.81
71107;BME280;58763;47.982;11.516;2023-02-19T12:51:40;94775.28;;;7.50;81.13
71107;BME280;58763;47.982;11.516;2023-02-19T12:56:25;94786.75;;;7.62;80.13
71107;BME280;58763;47.982;11.516;2023-02-19T12:59:03;94793.84;;;7.74;77.90
71107;BME280;58763;47.982;11.516;2023-02-19T13:01:38;94794.66;;;8.01;80.46
71107;BME280;58763;47.982;11.516;2023-02-19T13:06:57;94803.47;;;8.18;76.74
71107;BME280;58763;47.982;11.516;2023-02-19T13:09:43;94789.94;;;8.13;75.24
71107;BME280;58763;47.982;11.516;2023-02-19T13:12:33;94787.84;;;8.20;77.01
71107;BME280;58763;47.982;11.516;2023-02-19T13:15:13;94789.72;;;8.19;76.09
71107;BME280;58763;47.982;11.516;2023-02-19T13:17:50;94782.41;;;8.15;74.42
71107;BME280;58763;47.982;11.516;2023-02-19T13:29:17;94808.97;;;8.28;74.90
71107;BME280;58763;47.982;11.516;2023-02-19T13:37:48;94815.66;;;7.99;74.08
71107;BME280;58763;47.982;11.516;2023-02-19T13:42:57;94801.63;;;7.70;72.25
71107;BME280;58763;47.982;11.516;2023-02-19T13:52:55;94783.38;;;7.77;77.96
71107;BME280;58763;47.982;11.516;2023-02-19T13:58:36;94777.75;;;7.79;74.40
71107;BME280;58763;47.982;11.516;2023-02-19T14:01:10;94797.19;;;7.59;74.32
71107;BME280;58763;47.982;11.516;2023-02-19T14:06:07;94809.91;;;7.42;74.28
71107;BME280;58763;47.982;11.516;2023-02-19T14:08:52;94814.22;;;7.43;73.98
71107;BME280;58763;47.982;11.516;2023-02-19T14:14:46;94784.06;;;7.41;75.97
71107;BME280;58763;47.982;11.516;2023-02-19T14:19:59;94799.91;;;7.37;75.90
71107;BME280;58763;47.982;11.516;2023-02-19T14:28:18;94812.66;;;7.25;75.70
71107;BME280;58763;47.982;11.516;2023-02-19T14:33:35;94804.78;;;7.19;74.85
71107;BME280;58763;47.982;11.516;2023-02-19T14:36:04;94796.53;;;7.25;73.85
71107;BME280;58763;47.982;11.516;2023-02-19T14:38:50;94799.28;;;7.30;73.76
71107;BME280;58763;47.982;11.516;2023-02-19T14:41:19;94822.41;;;7.31;71.64
71107;BME280;58763;47.982;11.516;2023-02-19T14:43:49;94825.84;;;7.27;72.15
71107;BME280;58763;47.982;11.516;2023-02-19T14:46:29;94816.41;;;7.24;72.20
71107;BME280;58763;47.982;11.516;2023-02-19T14:49:02;94817.53;;;7.28;71.11
71107;BME280;58763;47.982;11.516;2023-02-19T14:51:34;94803.22;;;7.23;70.80
71107;BME280;58763;47.982;11.516;2023-02-19T14:54:19;94810.94;;;7.19;70.36
71107;BME280;58763;47.982;11.516;2023-02-19T14:56:51;94811.34;;;7.28;69.80
71107;BME280;58763;47.982;11.516;2023-02-19T14:59:23;94802.47;;;7.27;69.06
71107;BME280;58763;47.982;11.516;2023-02-19T15:02:00;94806.81;;;7.33;69.07
71107;BME280;58763;47.982;11.516;2023-02-19T15:04:29;94812.53;;;7.37;69.50
71107;BME280;58763;47.982;11.516;2023-02-19T15:06:58;94819.22;;;7.34;68.49
71107;BME280;58763;47.982;11.516;2023-02-19T15:09:30;94829.50;;;7.37;68.57
71107;BME280;58763;47.982;11.516;2023-02-19T15:11:57;94825.84;;;7.27;68.96
71107;BME280;58763;47.982;11.516;2023-02-19T15:14:24;94826.03;;;7.20;68.85
71107;BME280;58763;47.982;11.516;2023-02-19T15:16:57;94831.50;;;7.25;69.79
71107;BME280;58763;47.982;11.516;2023-02-19T15:19:24;94826.75;;;7.32;69.26
71107;BME280;58763;47.982;11.516;2023-02-19T15:21:50;94842.06;;;7.32;67.99
71107;BME280;58763;47.982;11.516;2023-02-19T15:24:16;94836.78;;;7.20;68.92
71107;BME280;58763;47.982;11.516;2023-02-19T15:26:49;94846.47;;;7.21;68.36